Big Bear Station Historical Data
Daily Summary for March 10, 2019 Units:  Metric    English   Both
Next Day »
Daily Weekly Monthly Yearly Custom
  High: Low: Average:
Temperature: 2.4 °C -7.2 °C -2.2 °C
Dew Point: -1.6 °C -10.4 °C -5.5 °C
Humidity: 94% 48% 79%
Wind Speed: 8.5km/h 0km/h 1.8km/h
Wind Gust: -1607.7km/h - -
Wind- - NW
Pressure: 789.6 hPa 786.6 hPa -
Precipitation: 0 mm    
Historical Graphs
 
 
Tabular Data for March 10, 2019
Time Temperature Dew Point Pressure Wind Wind Speed Wind Gust Humidity Rainfall Rate (Hourly)
00:05 -5.7 °C -7.8 °C 787.6 hPa Calm   -1607.7 km/h 85% 0 mm
00:20 -5.9 °C -8 °C 787.9 hPa Calm   -1607.7 km/h 85% 0 mm
00:35 -6.3 °C -8.7 °C 787.6 hPa Calm   -1607.7 km/h 83% 0 mm
00:50 -6.5 °C -9.4 °C 787.6 hPa Calm   -1607.7 km/h 80% 0 mm
01:06 -6.8 °C -9.1 °C 787.6 hPa Calm   -1607.7 km/h 84% 0 mm
01:21 -6.8 °C -9.3 °C 787.6 hPa Calm   -1607.7 km/h 82% 0 mm
01:36 -7.2 °C -9.6 °C 787.2 hPa Calm   -1607.7 km/h 83% 0 mm
01:51 -7 °C -9.6 °C 787.2 hPa Calm   -1607.7 km/h 82% 0 mm
03:00 -7 °C -9.1 °C 787.2 hPa Calm   -1607.7 km/h 85% 0 mm
03:15 -7.2 °C -9.9 °C 786.9 hPa Calm   -1607.7 km/h 81% 0 mm
03:30 -7.2 °C -9.9 °C 786.9 hPa Calm   -1607.7 km/h 81% 0 mm
03:46 -7.1 °C -9.8 °C 786.9 hPa Calm   -1607.7 km/h 81% 0 mm
04:01 -7.1 °C -10.1 °C 786.6 hPa Calm   -1607.7 km/h 79% 0 mm
04:16 -7.2 °C -10.4 °C 786.6 hPa Calm   -1607.7 km/h 78% 0 mm
04:32 -7.1 °C -10 °C 786.6 hPa Calm   -1607.7 km/h 80% 0 mm
04:47 -7 °C -9.6 °C 786.6 hPa Calm   -1607.7 km/h 82% 0 mm
05:02 -6.8 °C -9.7 °C 786.6 hPa Calm   -1607.7 km/h 80% 0 mm
05:17 -6.5 °C -9.6 °C 786.6 hPa Calm   -1607.7 km/h 79% 0 mm
05:32 -6.5 °C -9.4 °C 786.6 hPa Calm   -1607.7 km/h 80% 0 mm
05:48 -6.3 °C -8.6 °C 786.6 hPa Calm   -1607.7 km/h 84% 0 mm
06:03 -5.9 °C -8.8 °C 786.6 hPa Calm   -1607.7 km/h 80% 0 mm
06:18 -5.8 °C -8.8 °C 786.6 hPa Calm   -1607.7 km/h 79% 0 mm
06:33 -5.8 °C -8.3 °C 786.6 hPa Calm   -1607.7 km/h 82% 0 mm
06:48 -5.7 °C -8 °C 786.6 hPa Calm   -1607.7 km/h 84% 0 mm
07:04 -5.5 °C -7.8 °C 786.9 hPa Calm   -1607.7 km/h 84% 0 mm
07:19 -5.3 °C -7.7 °C 786.9 hPa Calm   -1607.7 km/h 83% 0 mm
07:34 -5.1 °C -8 °C 786.9 hPa Calm   -1607.7 km/h 80% 0 mm
07:49 -4.9 °C -7.7 °C 787.2 hPa Calm   -1607.7 km/h 81% 0 mm
08:05 -4.3 °C -6.9 °C 787.2 hPa Calm   -1607.7 km/h 82% 0 mm
08:20 -3.8 °C -6.4 °C 787.2 hPa Calm   -1607.7 km/h 82% 0 mm
08:35 -3 °C -5.9 °C 787.2 hPa Calm   -1607.7 km/h 80% 0 mm
08:50 -2.3 °C -6.4 °C 787.6 hPa Calm   -1607.7 km/h 73% 0 mm
09:05 -1.6 °C -8.6 °C 787.6 hPa Calm   -1607.7 km/h 59% 0 mm
09:21 -0.9 °C -8.1 °C 787.6 hPa NW 2.7 km/h -1607.7 km/h 58% 0 mm
09:36 -0.3 °C -7.1 °C 787.9 hPa NNW 1.8 km/h -1607.7 km/h 60% 0 mm
09:51 0.2 °C -6.8 °C 787.9 hPa Calm   -1607.7 km/h 59% 0 mm
10:06 1.1 °C -8.2 °C 787.9 hPa Calm   -1607.7 km/h 50% 0 mm
10:21 1.1 °C -8.7 °C 787.9 hPa Calm   -1607.7 km/h 48% 0 mm
10:37 1.5 °C -7.3 °C 787.9 hPa SSW 1.8 km/h -1607.7 km/h 52% 0 mm
10:52 1.9 °C -7.7 °C 787.9 hPa NNW 4.3 km/h -1607.7 km/h 49% 0 mm
11:07 1.9 °C -7.7 °C 787.9 hPa NW 4.3 km/h -1607.7 km/h 49% 0 mm
11:23 2.2 °C -7.4 °C 787.9 hPa North 6 km/h -1607.7 km/h 49% 0 mm
11:38 2.4 °C -5.5 °C 787.9 hPa WNW 6 km/h -1607.7 km/h 56% 0 mm
11:53 1.5 °C -4.2 °C 787.9 hPa North 6.8 km/h -1607.7 km/h 66% 0 mm
12:09 1.7 °C -3.9 °C 787.9 hPa NNW 6 km/h -1607.7 km/h 66% 0 mm
12:25 1.5 °C -2.4 °C 788.3 hPa NNW 6.8 km/h -1607.7 km/h 75% 0 mm
12:40 1.3 °C -2.7 °C 787.9 hPa NW 6.8 km/h -1607.7 km/h 75% 0 mm
12:55 1.6 °C -2.2 °C 787.9 hPa NW 6 km/h -1607.7 km/h 76% 0 mm
13:11 1.3 °C -2.7 °C 787.9 hPa Calm   -1607.7 km/h 75% 0 mm
13:26 1.5 °C -2.6 °C 787.9 hPa NNW 6.8 km/h -1607.7 km/h 74% 0 mm
13:41 1.6 °C -3.1 °C 787.9 hPa NNW 5.1 km/h -1607.7 km/h 71% 0 mm
13:56 1.8 °C -3.3 °C 787.9 hPa NW 6 km/h -1607.7 km/h 69% 0 mm
14:12 2.2 °C -3.1 °C 787.9 hPa WNW 6.8 km/h -1607.7 km/h 68% 0 mm
14:27 2 °C -3.1 °C 787.6 hPa NW 6 km/h -1607.7 km/h 69% 0 mm
14:42 1.7 °C -2.8 °C 787.6 hPa NW 3.5 km/h -1607.7 km/h 72% 0 mm
14:58 1.5 °C -2.4 °C 787.6 hPa West 4.3 km/h -1607.7 km/h 75% 0 mm
15:13 2.4 °C -2.2 °C 787.6 hPa NW 6.8 km/h -1607.7 km/h 72% 0 mm
15:28 2 °C -1.8 °C 787.6 hPa NW 7.6 km/h -1607.7 km/h 76% 0 mm
15:44 2.2 °C -1.6 °C 787.6 hPa NW 6 km/h -1607.7 km/h 76% 0 mm
15:59 2.2 °C -1.8 °C 787.6 hPa NW 5.1 km/h -1607.7 km/h 75% 0 mm
16:14 2 °C -2.2 °C 787.6 hPa NW 5.1 km/h -1607.7 km/h 74% 0 mm
16:30 2 °C -1.9 °C 787.9 hPa NW 6.8 km/h -1607.7 km/h 75% 0 mm
16:45 1.6 °C -2.9 °C 787.9 hPa WNW 6 km/h -1607.7 km/h 72% 0 mm
17:01 0.8 °C -2.4 °C 787.9 hPa NW 5.1 km/h -1607.7 km/h 79% 0 mm
17:16 0.4 °C -2 °C 787.9 hPa WNW 2.7 km/h -1607.7 km/h 84% 0 mm
17:32 0.7 °C -1.8 °C 787.9 hPa NW 8.5 km/h -1607.7 km/h 83% 0 mm
17:47 0.1 °C -2.1 °C 787.9 hPa NNW 3.5 km/h -1607.7 km/h 85% 0 mm
18:02 -0.4 °C -2.3 °C 787.9 hPa SSE 4.3 km/h -1607.7 km/h 87% 0 mm
18:17 -0.7 °C -2.6 °C 787.9 hPa Calm   -1607.7 km/h 87% 0 mm
18:33 -1 °C -2.7 °C 788.3 hPa Calm   -1607.7 km/h 88% 0 mm
18:48 -1.2 °C -2.7 °C 788.3 hPa Calm   -1607.7 km/h 90% 0 mm
19:03 -1.3 °C -2.6 °C 788.3 hPa Calm   -1607.7 km/h 91% 0 mm
19:18 -1.5 °C -2.8 °C 788.3 hPa Calm   -1607.7 km/h 91% 0 mm
19:34 -1.7 °C -2.8 °C 788.3 hPa Calm   -1607.7 km/h 92% 0 mm
19:49 -1.7 °C -2.7 °C 788.3 hPa Calm   -1607.7 km/h 93% 0 mm
20:04 -1.7 °C -2.7 °C 788.6 hPa Calm   -1607.7 km/h 93% 0 mm
20:19 -1.7 °C -2.6 °C 788.6 hPa Calm   -1607.7 km/h 94% 0 mm
20:34 -1.8 °C -2.6 °C 788.9 hPa Calm   -1607.7 km/h 94% 0 mm
20:50 -1.9 °C -2.7 °C 788.9 hPa Calm   -1607.7 km/h 94% 0 mm
21:05 -1.9 °C -2.7 °C 788.9 hPa Calm   -1607.7 km/h 94% 0 mm
21:20 -2 °C -2.8 °C 788.9 hPa Calm   -1607.7 km/h 94% 0 mm
21:35 -2.2 °C -3.2 °C 788.9 hPa Calm   -1607.7 km/h 93% 0 mm
21:50 -2.6 °C -3.7 °C 788.9 hPa Calm   -1607.7 km/h 92% 0 mm
22:06 -2.9 °C -4 °C 788.9 hPa Calm   -1607.7 km/h 92% 0 mm
22:21 -3.2 °C -4.3 °C 788.9 hPa Calm   -1607.7 km/h 92% 0 mm
22:36 -3.4 °C -4.3 °C 789.3 hPa Calm   -1607.7 km/h 93% 0 mm
22:51 -3.5 °C -4.4 °C 788.9 hPa Calm   -1607.7 km/h 93% 0 mm
23:06 -3.5 °C -4.4 °C 789.3 hPa Calm   -1607.7 km/h 93% 0 mm
23:22 -3.5 °C -4.4 °C 789.3 hPa Calm   -1607.7 km/h 93% 0 mm
23:37 -3.7 °C -4.6 °C 789.3 hPa Calm   -1607.7 km/h 94% 0 mm
23:52 -3.7 °C -4.6 °C 789.6 hPa Calm   -1607.7 km/h 94% 0 mm
Big Bear CA Weather